sensor_id;sensor_type;location;lat;lon;timestamp;P1;durP1;ratioP1;P2;durP2;ratioP2
77117;SDS011;66072;50.238;19.228;2023-06-04T00:02:24;6.10;;;2.30;;
77117;SDS011;66072;50.238;19.228;2023-06-04T00:04:52;6.00;;;2.60;;
77117;SDS011;66072;50.238;19.228;2023-06-04T00:07:20;4.60;;;2.40;;
77117;SDS011;66072;50.238;19.228;2023-06-04T00:09:48;4.70;;;2.50;;
77117;SDS011;66072;50.238;19.228;2023-06-04T00:12:15;5.30;;;2.70;;
77117;SDS011;66072;50.238;19.228;2023-06-04T00:14:43;5.40;;;2.60;;
77117;SDS011;66072;50.238;19.228;2023-06-04T00:17:11;5.30;;;2.20;;
77117;SDS011;66072;50.238;19.228;2023-06-04T00:19:38;6.70;;;2.40;;
77117;SDS011;66072;50.238;19.228;2023-06-04T00:22:06;4.80;;;2.20;;
77117;SDS011;66072;50.238;19.228;2023-06-04T00:24:37;4.70;;;2.20;;
77117;SDS011;66072;50.238;19.228;2023-06-04T00:27:06;5.40;;;2.40;;
77117;SDS011;66072;50.238;19.228;2023-06-04T00:29:37;5.20;;;2.10;;
77117;SDS011;66072;50.238;19.228;2023-06-04T00:32:05;4.20;;;2.00;;
77117;SDS011;66072;50.238;19.228;2023-06-04T00:34:33;4.60;;;2.00;;
77117;SDS011;66072;50.238;19.228;2023-06-04T00:37:01;5.20;;;2.50;;
77117;SDS011;66072;50.238;19.228;2023-06-04T00:39:32;5.40;;;2.70;;
77117;SDS011;66072;50.238;19.228;2023-06-04T00:42:00;4.30;;;2.30;;
77117;SDS011;66072;50.238;19.228;2023-06-04T00:44:28;5.70;;;2.10;;
77117;SDS011;66072;50.238;19.228;2023-06-04T00:46:55;3.70;;;1.90;;
77117;SDS011;66072;50.238;19.228;2023-06-04T00:49:23;4.50;;;2.30;;
77117;SDS011;66072;50.238;19.228;2023-06-04T00:51:51;4.20;;;2.20;;
77117;SDS011;66072;50.238;19.228;2023-06-04T00:54:19;4.30;;;2.00;;
77117;SDS011;66072;50.238;19.228;2023-06-04T00:56:47;4.40;;;2.00;;
77117;SDS011;66072;50.238;19.228;2023-06-04T00:59:15;5.10;;;2.00;;
77117;SDS011;66072;50.238;19.228;2023-06-04T01:01:49;7.60;;;2.50;;
77117;SDS011;66072;50.238;19.228;2023-06-04T01:04:24;4.90;;;2.10;;
77117;SDS011;66072;50.238;19.228;2023-06-04T01:06:56;6.80;;;2.40;;
77117;SDS011;66072;50.238;19.228;2023-06-04T01:09:27;3.90;;;1.80;;
77117;SDS011;66072;50.238;19.228;2023-06-04T01:11:56;5.00;;;2.00;;
77117;SDS011;66072;50.238;19.228;2023-06-04T01:14:24;3.70;;;1.70;;
77117;SDS011;66072;50.238;19.228;2023-06-04T01:21:54;5.50;;;2.20;;
77117;SDS011;66072;50.238;19.228;2023-06-04T01:24:32;7.10;;;2.40;;
77117;SDS011;66072;50.238;19.228;2023-06-04T01:27:03;4.40;;;2.20;;
77117;SDS011;66072;50.238;19.228;2023-06-04T01:32:00;5.90;;;2.20;;
77117;SDS011;66072;50.238;19.228;2023-06-04T01:34:28;8.00;;;2.80;;
77117;SDS011;66072;50.238;19.228;2023-06-04T01:36:56;6.30;;;2.40;;
77117;SDS011;66072;50.238;19.228;2023-06-04T01:39:23;4.80;;;2.40;;
77117;SDS011;66072;50.238;19.228;2023-06-04T01:41:51;5.70;;;2.30;;
77117;SDS011;66072;50.238;19.228;2023-06-04T01:44:19;6.20;;;2.30;;
77117;SDS011;66072;50.238;19.228;2023-06-04T01:46:48;6.30;;;2.30;;
77117;SDS011;66072;50.238;19.228;2023-06-04T01:49:16;4.50;;;2.00;;
77117;SDS011;66072;50.238;19.228;2023-06-04T01:51:44;6.80;;;2.80;;
77117;SDS011;66072;50.238;19.228;2023-06-04T01:54:11;4.90;;;2.80;;
77117;SDS011;66072;50.238;19.228;2023-06-04T01:56:41;6.70;;;2.40;;
77117;SDS011;66072;50.238;19.228;2023-06-04T01:59:08;5.20;;;2.30;;
77117;SDS011;66072;50.238;19.228;2023-06-04T02:01:36;5.20;;;2.60;;
77117;SDS011;66072;50.238;19.228;2023-06-04T02:04:04;3.90;;;2.40;;
77117;SDS011;66072;50.238;19.228;2023-06-04T02:06:31;6.10;;;2.70;;
77117;SDS011;66072;50.238;19.228;2023-06-04T02:08:59;8.50;;;2.70;;
77117;SDS011;66072;50.238;19.228;2023-06-04T02:11:27;4.70;;;2.50;;
77117;SDS011;66072;50.238;19.228;2023-06-04T02:13:54;7.10;;;2.80;;
77117;SDS011;66072;50.238;19.228;2023-06-04T02:16:22;6.50;;;2.20;;
77117;SDS011;66072;50.238;19.228;2023-06-04T02:18:49;5.00;;;2.50;;
77117;SDS011;66072;50.238;19.228;2023-06-04T02:21:17;7.00;;;2.70;;
77117;SDS011;66072;50.238;19.228;2023-06-04T02:23:45;5.20;;;2.60;;
77117;SDS011;66072;50.238;19.228;2023-06-04T02:26:12;5.10;;;2.60;;
77117;SDS011;66072;50.238;19.228;2023-06-04T02:28:40;6.20;;;2.60;;
77117;SDS011;66072;50.238;19.228;2023-06-04T02:31:07;5.50;;;2.30;;
77117;SDS011;66072;50.238;19.228;2023-06-04T02:33:35;6.50;;;2.50;;
77117;SDS011;66072;50.238;19.228;2023-06-04T02:36:03;6.00;;;2.20;;
77117;SDS011;66072;50.238;19.228;2023-06-04T02:38:32;5.10;;;2.70;;
77117;SDS011;66072;50.238;19.228;2023-06-04T02:41:00;4.90;;;2.20;;
77117;SDS011;66072;50.238;19.228;2023-06-04T02:43:27;4.20;;;2.20;;
77117;SDS011;66072;50.238;19.228;2023-06-04T02:45:55;3.40;;;2.00;;
77117;SDS011;66072;50.238;19.228;2023-06-04T02:48:23;4.80;;;2.30;;
77117;SDS011;66072;50.238;19.228;2023-06-04T02:50:52;3.70;;;2.30;;
77117;SDS011;66072;50.238;19.228;2023-06-04T02:53:19;4.50;;;2.60;;
77117;SDS011;66072;50.238;19.228;2023-06-04T02:55:47;4.90;;;2.30;;
77117;SDS011;66072;50.238;19.228;2023-06-04T02:58:14;4.50;;;1.80;;
77117;SDS011;66072;50.238;19.228;2023-06-04T03:00:42;5.50;;;2.30;;
77117;SDS011;66072;50.238;19.228;2023-06-04T03:03:09;5.40;;;2.20;;
77117;SDS011;66072;50.238;19.228;2023-06-04T03:05:38;6.70;;;2.00;;
77117;SDS011;66072;50.238;19.228;2023-06-04T03:08:05;4.80;;;2.40;;
77117;SDS011;66072;50.238;19.228;2023-06-04T03:10:33;4.00;;;2.40;;
77117;SDS011;66072;50.238;19.228;2023-06-04T03:13:00;6.30;;;2.10;;
77117;SDS011;66072;50.238;19.228;2023-06-04T03:15:28;4.00;;;1.90;;
77117;SDS011;66072;50.238;19.228;2023-06-04T03:17:56;4.00;;;1.60;;
77117;SDS011;66072;50.238;19.228;2023-06-04T03:20:23;3.70;;;1.80;;
77117;SDS011;66072;50.238;19.228;2023-06-04T03:22:51;4.90;;;2.10;;
77117;SDS011;66072;50.238;19.228;2023-06-04T03:25:19;5.50;;;2.00;;
77117;SDS011;66072;50.238;19.228;2023-06-04T03:27:47;4.60;;;2.30;;
77117;SDS011;66072;50.238;19.228;2023-06-04T03:30:14;4.40;;;1.90;;
77117;SDS011;66072;50.238;19.228;2023-06-04T03:32:44;4.40;;;1.90;;
77117;SDS011;66072;50.238;19.228;2023-06-04T03:35:12;6.30;;;2.30;;
77117;SDS011;66072;50.238;19.228;2023-06-04T03:37:40;4.80;;;2.10;;
77117;SDS011;66072;50.238;19.228;2023-06-04T03:40:07;4.70;;;1.90;;
77117;SDS011;66072;50.238;19.228;2023-06-04T03:42:35;5.80;;;2.30;;
77117;SDS011;66072;50.238;19.228;2023-06-04T03:45:03;4.40;;;2.10;;
77117;SDS011;66072;50.238;19.228;2023-06-04T03:47:31;5.30;;;2.10;;
77117;SDS011;66072;50.238;19.228;2023-06-04T03:49:59;4.60;;;1.90;;
77117;SDS011;66072;50.238;19.228;2023-06-04T03:52:26;4.00;;;1.80;;
77117;SDS011;66072;50.238;19.228;2023-06-04T03:54:54;4.50;;;1.80;;
77117;SDS011;66072;50.238;19.228;2023-06-04T03:57:22;4.80;;;2.30;;
77117;SDS011;66072;50.238;19.228;2023-06-04T03:59:50;4.00;;;2.00;;
77117;SDS011;66072;50.238;19.228;2023-06-04T04:02:17;3.70;;;2.00;;
77117;SDS011;66072;50.238;19.228;2023-06-04T04:04:45;5.30;;;2.50;;
77117;SDS011;66072;50.238;19.228;2023-06-04T04:07:13;4.20;;;1.60;;
77117;SDS011;66072;50.238;19.228;2023-06-04T04:09:40;4.50;;;2.10;;
77117;SDS011;66072;50.238;19.228;2023-06-04T04:12:08;4.50;;;2.00;;
77117;SDS011;66072;50.238;19.228;2023-06-04T04:14:36;4.50;;;1.80;;
77117;SDS011;66072;50.238;19.228;2023-06-04T04:17:04;5.30;;;1.90;;
77117;SDS011;66072;50.238;19.228;2023-06-04T04:19:31;5.10;;;1.90;;
77117;SDS011;66072;50.238;19.228;2023-06-04T04:21:59;4.30;;;2.00;;
77117;SDS011;66072;50.238;19.228;2023-06-04T04:24:27;3.40;;;1.80;;
77117;SDS011;66072;50.238;19.228;2023-06-04T04:26:56;3.30;;;2.00;;
77117;SDS011;66072;50.238;19.228;2023-06-04T04:29:23;4.40;;;2.10;;
77117;SDS011;66072;50.238;19.228;2023-06-04T04:31:51;6.10;;;1.90;;
77117;SDS011;66072;50.238;19.228;2023-06-04T04:34:19;4.70;;;1.70;;
77117;SDS011;66072;50.238;19.228;2023-06-04T04:36:47;4.50;;;1.90;;
77117;SDS011;66072;50.238;19.228;2023-06-04T04:39:14;4.70;;;1.80;;
77117;SDS011;66072;50.238;19.228;2023-06-04T04:41:42;3.30;;;2.00;;
77117;SDS011;66072;50.238;19.228;2023-06-04T04:44:09;5.40;;;1.90;;
77117;SDS011;66072;50.238;19.228;2023-06-04T04:46:37;3.90;;;1.60;;
77117;SDS011;66072;50.238;19.228;2023-06-04T04:49:05;5.20;;;1.90;;
77117;SDS011;66072;50.238;19.228;2023-06-04T04:51:32;4.60;;;2.10;;
77117;SDS011;66072;50.238;19.228;2023-06-04T04:54:00;3.80;;;1.70;;
77117;SDS011;66072;50.238;19.228;2023-06-04T04:56:28;4.00;;;1.60;;
77117;SDS011;66072;50.238;19.228;2023-06-04T04:58:56;3.70;;;2.00;;
77117;SDS011;66072;50.238;19.228;2023-06-04T05:01:24;4.30;;;2.10;;
77117;SDS011;66072;50.238;19.228;2023-06-04T05:03:51;5.00;;;2.40;;
77117;SDS011;66072;50.238;19.228;2023-06-04T05:06:19;3.70;;;1.80;;
77117;SDS011;66072;50.238;19.228;2023-06-04T05:08:47;5.00;;;1.90;;
77117;SDS011;66072;50.238;19.228;2023-06-04T05:11:15;3.80;;;1.80;;
77117;SDS011;66072;50.238;19.228;2023-06-04T05:13:42;3.30;;;1.90;;
77117;SDS011;66072;50.238;19.228;2023-06-04T05:16:10;4.40;;;1.90;;
77117;SDS011;66072;50.238;19.228;2023-06-04T05:18:38;5.40;;;1.90;;
77117;SDS011;66072;50.238;19.228;2023-06-04T05:21:05;3.60;;;1.60;;
77117;SDS011;66072;50.238;19.228;2023-06-04T05:23:34;4.20;;;1.80;;
77117;SDS011;66072;50.238;19.228;2023-06-04T05:26:02;3.90;;;1.70;;
77117;SDS011;66072;50.238;19.228;2023-06-04T05:28:30;3.30;;;1.40;;
77117;SDS011;66072;50.238;19.228;2023-06-04T05:30:59;3.60;;;1.80;;
77117;SDS011;66072;50.238;19.228;2023-06-04T05:33:30;5.30;;;1.90;;
77117;SDS011;66072;50.238;19.228;2023-06-04T05:35:58;3.60;;;1.90;;
77117;SDS011;66072;50.238;19.228;2023-06-04T05:38:26;4.10;;;1.90;;
77117;SDS011;66072;50.238;19.228;2023-06-04T05:40:54;4.00;;;1.70;;
77117;SDS011;66072;50.238;19.228;2023-06-04T05:43:23;4.60;;;2.00;;
77117;SDS011;66072;50.238;19.228;2023-06-04T05:45:51;3.70;;;1.90;;
77117;SDS011;66072;50.238;19.228;2023-06-04T05:48:19;3.70;;;1.80;;
77117;SDS011;66072;50.238;19.228;2023-06-04T05:50:46;3.20;;;1.80;;
77117;SDS011;66072;50.238;19.228;2023-06-04T05:53:14;4.10;;;2.00;;
77117;SDS011;66072;50.238;19.228;2023-06-04T05:55:42;3.70;;;1.70;;
77117;SDS011;66072;50.238;19.228;2023-06-04T05:58:10;3.80;;;1.40;;
77117;SDS011;66072;50.238;19.228;2023-06-04T06:00:38;3.30;;;1.50;;
77117;SDS011;66072;50.238;19.228;2023-06-04T06:03:05;3.30;;;1.40;;
77117;SDS011;66072;50.238;19.228;2023-06-04T06:05:33;3.40;;;1.80;;
77117;SDS011;66072;50.238;19.228;2023-06-04T06:08:01;3.70;;;1.50;;
77117;SDS011;66072;50.238;19.228;2023-06-04T06:10:29;3.60;;;1.60;;
77117;SDS011;66072;50.238;19.228;2023-06-04T06:12:56;3.50;;;1.60;;
77117;SDS011;66072;50.238;19.228;2023-06-04T06:15:24;2.60;;;1.30;;
77117;SDS011;66072;50.238;19.228;2023-06-04T06:17:53;5.40;;;2.00;;
77117;SDS011;66072;50.238;19.228;2023-06-04T06:20:20;4.20;;;1.70;;
77117;SDS011;66072;50.238;19.228;2023-06-04T06:22:48;5.60;;;2.00;;
77117;SDS011;66072;50.238;19.228;2023-06-04T06:25:17;3.30;;;1.40;;
77117;SDS011;66072;50.238;19.228;2023-06-04T06:27:44;4.00;;;2.10;;
77117;SDS011;66072;50.238;19.228;2023-06-04T06:30:12;3.70;;;1.60;;
77117;SDS011;66072;50.238;19.228;2023-06-04T06:32:40;3.40;;;1.50;;
77117;SDS011;66072;50.238;19.228;2023-06-04T06:35:08;4.30;;;1.80;;
77117;SDS011;66072;50.238;19.228;2023-06-04T06:37:36;3.10;;;1.50;;
77117;SDS011;66072;50.238;19.228;2023-06-04T06:40:03;3.60;;;1.40;;
77117;SDS011;66072;50.238;19.228;2023-06-04T06:42:32;3.80;;;1.30;;
77117;SDS011;66072;50.238;19.228;2023-06-04T06:45:00;4.20;;;1.70;;
77117;SDS011;66072;50.238;19.228;2023-06-04T06:47:28;3.00;;;1.70;;
77117;SDS011;66072;50.238;19.228;2023-06-04T06:49:56;3.00;;;1.40;;
77117;SDS011;66072;50.238;19.228;2023-06-04T06:52:23;3.60;;;1.70;;
77117;SDS011;66072;50.238;19.228;2023-06-04T06:54:51;5.50;;;1.50;;
77117;SDS011;66072;50.238;19.228;2023-06-04T06:57:18;4.70;;;1.70;;
77117;SDS011;66072;50.238;19.228;2023-06-04T06:59:46;3.40;;;1.60;;
77117;SDS011;66072;50.238;19.228;2023-06-04T07:02:14;3.30;;;1.50;;
77117;SDS011;66072;50.238;19.228;2023-06-04T07:04:41;3.80;;;1.60;;
77117;SDS011;66072;50.238;19.228;2023-06-04T07:07:09;3.60;;;1.30;;
77117;SDS011;66072;50.238;19.228;2023-06-04T07:09:36;3.40;;;1.60;;
77117;SDS011;66072;50.238;19.228;2023-06-04T07:12:04;3.30;;;1.30;;
77117;SDS011;66072;50.238;19.228;2023-06-04T07:14:32;3.50;;;1.90;;
77117;SDS011;66072;50.238;19.228;2023-06-04T07:17:00;3.40;;;1.60;;
77117;SDS011;66072;50.238;19.228;2023-06-04T07:19:28;4.10;;;1.50;;
77117;SDS011;66072;50.238;19.228;2023-06-04T07:21:56;3.90;;;1.50;;
77117;SDS011;66072;50.238;19.228;2023-06-04T07:24:23;3.80;;;1.70;;
77117;SDS011;66072;50.238;19.228;2023-06-04T07:26:51;3.40;;;1.20;;
77117;SDS011;66072;50.238;19.228;2023-06-04T07:29:22;5.70;;;2.30;;
77117;SDS011;66072;50.238;19.228;2023-06-04T07:31:49;3.20;;;1.30;;
77117;SDS011;66072;50.238;19.228;2023-06-04T07:34:17;3.30;;;1.30;;
77117;SDS011;66072;50.238;19.228;2023-06-04T07:36:45;3.20;;;1.40;;
77117;SDS011;66072;50.238;19.228;2023-06-04T07:39:15;3.40;;;1.10;;
77117;SDS011;66072;50.238;19.228;2023-06-04T07:41:44;3.10;;;1.10;;
77117;SDS011;66072;50.238;19.228;2023-06-04T07:44:11;4.70;;;1.40;;
77117;SDS011;66072;50.238;19.228;2023-06-04T07:46:39;2.90;;;1.30;;
77117;SDS011;66072;50.238;19.228;2023-06-04T07:49:07;3.40;;;1.30;;
77117;SDS011;66072;50.238;19.228;2023-06-04T07:51:35;3.40;;;1.30;;
77117;SDS011;66072;50.238;19.228;2023-06-04T07:54:03;4.20;;;1.20;;
77117;SDS011;66072;50.238;19.228;2023-06-04T07:56:31;3.10;;;1.40;;
77117;SDS011;66072;50.238;19.228;2023-06-04T07:58:58;3.20;;;1.30;;
77117;SDS011;66072;50.238;19.228;2023-06-04T08:01:26;4.30;;;1.90;;
77117;SDS011;66072;50.238;19.228;2023-06-04T08:03:56;2.50;;;1.20;;
77117;SDS011;66072;50.238;19.228;2023-06-04T08:06:24;2.70;;;1.00;;
77117;SDS011;66072;50.238;19.228;2023-06-04T08:08:52;3.60;;;1.10;;
77117;SDS011;66072;50.238;19.228;2023-06-04T08:11:20;3.80;;;1.20;;
77117;SDS011;66072;50.238;19.228;2023-06-04T08:13:47;3.90;;;1.70;;
77117;SDS011;66072;50.238;19.228;2023-06-04T08:16:15;3.90;;;1.70;;
77117;SDS011;66072;50.238;19.228;2023-06-04T08:18:43;3.20;;;1.30;;
77117;SDS011;66072;50.238;19.228;2023-06-04T08:21:11;3.90;;;1.50;;
77117;SDS011;66072;50.238;19.228;2023-06-04T08:23:39;4.20;;;1.40;;
77117;SDS011;66072;50.238;19.228;2023-06-04T08:26:06;3.20;;;1.40;;
77117;SDS011;66072;50.238;19.228;2023-06-04T08:28:35;2.80;;;1.30;;
77117;SDS011;66072;50.238;19.228;2023-06-04T08:31:03;2.70;;;1.20;;
77117;SDS011;66072;50.238;19.228;2023-06-04T08:33:31;2.70;;;1.10;;
77117;SDS011;66072;50.238;19.228;2023-06-04T08:35:58;4.00;;;1.20;;
77117;SDS011;66072;50.238;19.228;2023-06-04T08:38:26;3.20;;;1.50;;
77117;SDS011;66072;50.238;19.228;2023-06-04T08:40:54;2.90;;;1.40;;
77117;SDS011;66072;50.238;19.228;2023-06-04T08:43:25;2.50;;;1.00;;
77117;SDS011;66072;50.238;19.228;2023-06-04T08:45:53;3.80;;;1.30;;
77117;SDS011;66072;50.238;19.228;2023-06-04T08:48:26;3.10;;;1.30;;
77117;SDS011;66072;50.238;19.228;2023-06-04T08:50:56;2.90;;;1.40;;
77117;SDS011;66072;50.238;19.228;2023-06-04T08:53:27;3.20;;;1.50;;
77117;SDS011;66072;50.238;19.228;2023-06-04T08:55:55;3.10;;;1.50;;
77117;SDS011;66072;50.238;19.228;2023-06-04T08:58:23;4.50;;;1.30;;
77117;SDS011;66072;50.238;19.228;2023-06-04T09:00:52;4.60;;;1.50;;
77117;SDS011;66072;50.238;19.228;2023-06-04T09:03:20;2.80;;;1.40;;
77117;SDS011;66072;50.238;19.228;2023-06-04T09:05:51;4.10;;;1.70;;
77117;SDS011;66072;50.238;19.228;2023-06-04T09:08:21;4.10;;;1.30;;
77117;SDS011;66072;50.238;19.228;2023-06-04T09:10:53;3.00;;;1.20;;
77117;SDS011;66072;50.238;19.228;2023-06-04T09:13:22;4.10;;;1.50;;
77117;SDS011;66072;50.238;19.228;2023-06-04T09:15:59;2.80;;;1.30;;
77117;SDS011;66072;50.238;19.228;2023-06-04T09:18:30;4.60;;;1.50;;
77117;SDS011;66072;50.238;19.228;2023-06-04T09:21:02;2.70;;;1.20;;
77117;SDS011;66072;50.238;19.228;2023-06-04T09:23:31;3.80;;;1.40;;
77117;SDS011;66072;50.238;19.228;2023-06-04T09:26:07;3.00;;;1.30;;
77117;SDS011;66072;50.238;19.228;2023-06-04T09:28:39;3.60;;;1.30;;
77117;SDS011;66072;50.238;19.228;2023-06-04T09:31:13;4.60;;;1.70;;
77117;SDS011;66072;50.238;19.228;2023-06-04T09:33:45;3.80;;;1.50;;
77117;SDS011;66072;50.238;19.228;2023-06-04T09:36:15;3.00;;;1.20;;
77117;SDS011;66072;50.238;19.228;2023-06-04T09:38:44;2.80;;;1.20;;
77117;SDS011;66072;50.238;19.228;2023-06-04T09:41:12;2.80;;;1.40;;
77117;SDS011;66072;50.238;19.228;2023-06-04T09:43:42;3.20;;;1.20;;
77117;SDS011;66072;50.238;19.228;2023-06-04T09:46:14;2.80;;;1.30;;
77117;SDS011;66072;50.238;19.228;2023-06-04T09:48:43;4.10;;;1.40;;
77117;SDS011;66072;50.238;19.228;2023-06-04T09:51:12;3.80;;;1.40;;
77117;SDS011;66072;50.238;19.228;2023-06-04T09:53:42;2.90;;;1.40;;
77117;SDS011;66072;50.238;19.228;2023-06-04T09:56:09;3.80;;;1.60;;
77117;SDS011;66072;50.238;19.228;2023-06-04T09:58:37;3.10;;;1.50;;
77117;SDS011;66072;50.238;19.228;2023-06-04T10:01:06;5.00;;;1.50;;
77117;SDS011;66072;50.238;19.228;2023-06-04T10:03:35;3.30;;;1.40;;
77117;SDS011;66072;50.238;19.228;2023-06-04T10:06:04;3.00;;;1.40;;
77117;SDS011;66072;50.238;19.228;2023-06-04T10:08:33;2.80;;;1.40;;
77117;SDS011;66072;50.238;19.228;2023-06-04T10:11:01;2.80;;;1.40;;
77117;SDS011;66072;50.238;19.228;2023-06-04T10:13:31;3.50;;;1.60;;
77117;SDS011;66072;50.238;19.228;2023-06-04T10:16:06;2.90;;;1.30;;
77117;SDS011;66072;50.238;19.228;2023-06-04T10:18:47;3.10;;;1.40;;
77117;SDS011;66072;50.238;19.228;2023-06-04T10:21:16;3.10;;;1.30;;
77117;SDS011;66072;50.238;19.228;2023-06-04T10:23:45;2.70;;;1.50;;
77117;SDS011;66072;50.238;19.228;2023-06-04T10:26:13;3.60;;;1.70;;
77117;SDS011;66072;50.238;19.228;2023-06-04T10:28:42;3.00;;;1.30;;
77117;SDS011;66072;50.238;19.228;2023-06-04T10:31:10;4.20;;;1.30;;
77117;SDS011;66072;50.238;19.228;2023-06-04T10:33:38;2.40;;;1.20;;
77117;SDS011;66072;50.238;19.228;2023-06-04T10:36:20;3.80;;;1.60;;
77117;SDS011;66072;50.238;19.228;2023-06-04T10:38:52;5.00;;;1.60;;
77117;SDS011;66072;50.238;19.228;2023-06-04T10:41:23;2.90;;;1.50;;
77117;SDS011;66072;50.238;19.228;2023-06-04T10:43:51;4.10;;;1.50;;
77117;SDS011;66072;50.238;19.228;2023-06-04T10:46:37;3.30;;;1.50;;
77117;SDS011;66072;50.238;19.228;2023-06-04T10:49:06;3.90;;;1.60;;
77117;SDS011;66072;50.238;19.228;2023-06-04T10:51:35;3.10;;;1.70;;
77117;SDS011;66072;50.238;19.228;2023-06-04T10:54:03;4.20;;;1.60;;
77117;SDS011;66072;50.238;19.228;2023-06-04T10:56:32;5.30;;;1.50;;
77117;SDS011;66072;50.238;19.228;2023-06-04T10:59:12;4.30;;;1.50;;
77117;SDS011;66072;50.238;19.228;2023-06-04T11:01:41;3.40;;;1.50;;
77117;SDS011;66072;50.238;19.228;2023-06-04T11:04:25;3.90;;;1.30;;
77117;SDS011;66072;50.238;19.228;2023-06-04T11:07:00;3.40;;;1.40;;
77117;SDS011;66072;50.238;19.228;2023-06-04T11:09:31;4.20;;;1.30;;
77117;SDS011;66072;50.238;19.228;2023-06-04T11:12:01;2.70;;;1.40;;
77117;SDS011;66072;50.238;19.228;2023-06-04T11:14:31;3.30;;;1.60;;
77117;SDS011;66072;50.238;19.228;2023-06-04T11:17:12;2.70;;;1.50;;
77117;SDS011;66072;50.238;19.228;2023-06-04T11:19:41;3.00;;;1.20;;
77117;SDS011;66072;50.238;19.228;2023-06-04T11:22:12;3.70;;;1.50;;
77117;SDS011;66072;50.238;19.228;2023-06-04T11:24:39;3.20;;;1.40;;
77117;SDS011;66072;50.238;19.228;2023-06-04T11:27:07;2.80;;;1.30;;
77117;SDS011;66072;50.238;19.228;2023-06-04T11:29:44;3.40;;;1.70;;
77117;SDS011;66072;50.238;19.228;2023-06-04T11:32:24;3.30;;;1.50;;
77117;SDS011;66072;50.238;19.228;2023-06-04T11:35:01;2.90;;;1.60;;
77117;SDS011;66072;50.238;19.228;2023-06-04T11:37:30;2.90;;;1.40;;
77117;SDS011;66072;50.238;19.228;2023-06-04T11:39:58;3.10;;;1.50;;
77117;SDS011;66072;50.238;19.228;2023-06-04T11:42:25;2.70;;;1.30;;
77117;SDS011;66072;50.238;19.228;2023-06-04T11:44:57;2.70;;;1.40;;
77117;SDS011;66072;50.238;19.228;2023-06-04T11:47:25;3.00;;;1.40;;
77117;SDS011;66072;50.238;19.228;2023-06-04T11:49:56;2.40;;;1.10;;
77117;SDS011;66072;50.238;19.228;2023-06-04T11:52:24;4.00;;;1.50;;
77117;SDS011;66072;50.238;19.228;2023-06-04T11:54:52;3.70;;;1.50;;
77117;SDS011;66072;50.238;19.228;2023-06-04T11:57:20;2.80;;;1.20;;
77117;SDS011;66072;50.238;19.228;2023-06-04T11:59:47;3.40;;;1.40;;
77117;SDS011;66072;50.238;19.228;2023-06-04T12:02:15;3.10;;;1.40;;
77117;SDS011;66072;50.238;19.228;2023-06-04T12:04:43;3.10;;;1.40;;
77117;SDS011;66072;50.238;19.228;2023-06-04T12:07:11;3.70;;;1.40;;
77117;SDS011;66072;50.238;19.228;2023-06-04T12:09:39;2.80;;;1.20;;
77117;SDS011;66072;50.238;19.228;2023-06-04T12:12:07;3.40;;;1.20;;
77117;SDS011;66072;50.238;19.228;2023-06-04T12:14:35;3.00;;;1.30;;
77117;SDS011;66072;50.238;19.228;2023-06-04T12:17:07;3.40;;;1.40;;
77117;SDS011;66072;50.238;19.228;2023-06-04T12:19:49;3.20;;;1.50;;
77117;SDS011;66072;50.238;19.228;2023-06-04T12:22:18;2.60;;;1.20;;
77117;SDS011;66072;50.238;19.228;2023-06-04T12:24:47;3.00;;;1.30;;
77117;SDS011;66072;50.238;19.228;2023-06-04T12:27:18;3.40;;;1.30;;
77117;SDS011;66072;50.238;19.228;2023-06-04T12:30:02;3.10;;;1.20;;
77117;SDS011;66072;50.238;19.228;2023-06-04T12:32:34;2.50;;;1.00;;
77117;SDS011;66072;50.238;19.228;2023-06-04T12:35:03;2.80;;;1.00;;
77117;SDS011;66072;50.238;19.228;2023-06-04T12:39:58;2.70;;;1.00;;
77117;SDS011;66072;50.238;19.228;2023-06-04T12:42:28;3.00;;;1.20;;
77117;SDS011;66072;50.238;19.228;2023-06-04T12:44:56;2.70;;;1.30;;
77117;SDS011;66072;50.238;19.228;2023-06-04T12:47:24;3.10;;;1.40;;
77117;SDS011;66072;50.238;19.228;2023-06-04T12:49:51;4.60;;;1.30;;
77117;SDS011;66072;50.238;19.228;2023-06-04T12:52:19;2.20;;;1.20;;
77117;SDS011;66072;50.238;19.228;2023-06-04T12:54:47;2.80;;;1.40;;
77117;SDS011;66072;50.238;19.228;2023-06-04T12:57:15;2.10;;;1.00;;
77117;SDS011;66072;50.238;19.228;2023-06-04T12:59:43;3.10;;;1.30;;
77117;SDS011;66072;50.238;19.228;2023-06-04T13:02:10;7.10;;;1.50;;
77117;SDS011;66072;50.238;19.228;2023-06-04T13:04:38;3.10;;;1.40;;
77117;SDS011;66072;50.238;19.228;2023-06-04T13:07:06;3.60;;;1.30;;
77117;SDS011;66072;50.238;19.228;2023-06-04T13:09:36;3.70;;;1.10;;
77117;SDS011;66072;50.238;19.228;2023-06-04T13:12:04;3.80;;;1.20;;
77117;SDS011;66072;50.238;19.228;2023-06-04T13:14:32;2.40;;;1.20;;
77117;SDS011;66072;50.238;19.228;2023-06-04T13:17:00;2.50;;;1.20;;
77117;SDS011;66072;50.238;19.228;2023-06-04T13:19:42;4.70;;;1.30;;
77117;SDS011;66072;50.238;19.228;2023-06-04T13:22:09;3.60;;;1.30;;
77117;SDS011;66072;50.238;19.228;2023-06-04T13:24:37;3.10;;;1.30;;
77117;SDS011;66072;50.238;19.228;2023-06-04T13:27:05;4.70;;;1.40;;
77117;SDS011;66072;50.238;19.228;2023-06-04T13:29:33;3.50;;;1.20;;
77117;SDS011;66072;50.238;19.228;2023-06-04T13:32:00;3.40;;;1.20;;
77117;SDS011;66072;50.238;19.228;2023-06-04T13:34:28;3.10;;;1.30;;
77117;SDS011;66072;50.238;19.228;2023-06-04T13:36:56;3.00;;;1.20;;
77117;SDS011;66072;50.238;19.228;2023-06-04T13:39:23;6.40;;;1.30;;
77117;SDS011;66072;50.238;19.228;2023-06-04T13:41:51;3.90;;;1.20;;
77117;SDS011;66072;50.238;19.228;2023-06-04T13:46:47;5.90;;;1.30;;
77117;SDS011;66072;50.238;19.228;2023-06-04T13:51:42;2.90;;;1.20;;
77117;SDS011;66072;50.238;19.228;2023-06-04T13:56:40;4.00;;;1.10;;
77117;SDS011;66072;50.238;19.228;2023-06-04T14:01:35;9.60;;;1.60;;
77117;SDS011;66072;50.238;19.228;2023-06-04T14:06:30;3.30;;;1.10;;
77117;SDS011;66072;50.238;19.228;2023-06-04T14:08:58;3.30;;;1.10;;
77117;SDS011;66072;50.238;19.228;2023-06-04T14:13:56;4.10;;;1.30;;
77117;SDS011;66072;50.238;19.228;2023-06-04T14:16:24;2.60;;;1.40;;
77117;SDS011;66072;50.238;19.228;2023-06-04T14:21:19;2.90;;;1.10;;
77117;SDS011;66072;50.238;19.228;2023-06-04T14:23:47;4.00;;;1.50;;
77117;SDS011;66072;50.238;19.228;2023-06-04T14:28:42;2.60;;;1.10;;
77117;SDS011;66072;50.238;19.228;2023-06-04T14:31:10;2.90;;;1.20;;
77117;SDS011;66072;50.238;19.228;2023-06-04T14:33:38;3.60;;;1.10;;
77117;SDS011;66072;50.238;19.228;2023-06-04T14:36:06;3.30;;;1.30;;
77117;SDS011;66072;50.238;19.228;2023-06-04T14:38:33;2.90;;;1.10;;
77117;SDS011;66072;50.238;19.228;2023-06-04T14:43:29;2.60;;;1.10;;
77117;SDS011;66072;50.238;19.228;2023-06-04T14:45:57;3.00;;;1.10;;
77117;SDS011;66072;50.238;19.228;2023-06-04T14:50:52;4.90;;;1.50;;
77117;SDS011;66072;50.238;19.228;2023-06-04T14:53:19;3.20;;;1.30;;
77117;SDS011;66072;50.238;19.228;2023-06-04T14:58:15;8.30;;;1.50;;
77117;SDS011;66072;50.238;19.228;2023-06-04T15:00:43;4.30;;;1.30;;
77117;SDS011;66072;50.238;19.228;2023-06-04T15:05:38;5.00;;;1.30;;
77117;SDS011;66072;50.238;19.228;2023-06-04T15:10:34;2.70;;;0.90;;
77117;SDS011;66072;50.238;19.228;2023-06-04T15:13:02;2.90;;;1.10;;
77117;SDS011;66072;50.238;19.228;2023-06-04T15:15:29;2.40;;;0.90;;
77117;SDS011;66072;50.238;19.228;2023-06-04T15:17:57;2.40;;;1.00;;
77117;SDS011;66072;50.238;19.228;2023-06-04T15:22:53;3.30;;;1.30;;
77117;SDS011;66072;50.238;19.228;2023-06-04T15:25:20;2.80;;;1.30;;
77117;SDS011;66072;50.238;19.228;2023-06-04T15:27:48;3.50;;;1.40;;